sensor_id;sensor_type;location;lat;lon;timestamp;pressure;altitude;pressure_sealevel;temperature;humidity
38616;BME280;24370;51.986;4.666;2023-12-20T00:01:19;101687.13;;;14.04;53.33
38616;BME280;24370;51.986;4.666;2023-12-20T00:03:44;101682.34;;;14.37;52.79
38616;BME280;24370;51.986;4.666;2023-12-20T00:06:09;101689.41;;;13.48;54.19
38616;BME280;24370;51.986;4.666;2023-12-20T00:08:35;101690.94;;;13.69;53.32
38616;BME280;24370;51.986;4.666;2023-12-20T00:11:00;101682.41;;;13.46;54.36
38616;BME280;24370;51.986;4.666;2023-12-20T00:13:26;101680.25;;;13.91;53.31
38616;BME280;24370;51.986;4.666;2023-12-20T00:15:51;101688.31;;;13.72;53.97
38616;BME280;24370;51.986;4.666;2023-12-20T00:18:16;101690.16;;;13.61;54.20
38616;BME280;24370;51.986;4.666;2023-12-20T00:20:42;101688.56;;;13.42;54.93
38616;BME280;24370;51.986;4.666;2023-12-20T00:23:07;101695.28;;;13.73;54.34
38616;BME280;24370;51.986;4.666;2023-12-20T00:25:33;101687.19;;;13.97;53.25
38616;BME280;24370;51.986;4.666;2023-12-20T00:28:00;101693.84;;;13.34;55.56
38616;BME280;24370;51.986;4.666;2023-12-20T00:30:25;101682.94;;;13.85;54.28
38616;BME280;24370;51.986;4.666;2023-12-20T00:32:51;101684.44;;;14.07;54.40
38616;BME280;24370;51.986;4.666;2023-12-20T00:35:16;101694.09;;;14.04;53.87
38616;BME280;24370;51.986;4.666;2023-12-20T00:37:42;101688.09;;;13.94;54.22
38616;BME280;24370;51.986;4.666;2023-12-20T00:40:09;101686.38;;;13.93;54.26
38616;BME280;24370;51.986;4.666;2023-12-20T00:42:34;101679.31;;;13.97;53.97
38616;BME280;24370;51.986;4.666;2023-12-20T00:45:01;101683.00;;;13.79;54.53
38616;BME280;24370;51.986;4.666;2023-12-20T00:47:26;101678.94;;;14.29;53.79
38616;BME280;24370;51.986;4.666;2023-12-20T00:49:52;101676.72;;;15.29;50.99
38616;BME280;24370;51.986;4.666;2023-12-20T00:52:18;101686.09;;;14.89;52.14
38616;BME280;24370;51.986;4.666;2023-12-20T00:54:43;101684.16;;;14.32;52.71
38616;BME280;24370;51.986;4.666;2023-12-20T00:57:09;101688.31;;;13.74;53.50
38616;BME280;24370;51.986;4.666;2023-12-20T00:59:34;101691.75;;;13.81;54.19
38616;BME280;24370;51.986;4.666;2023-12-20T01:02:00;101687.97;;;14.05;53.95
38616;BME280;24370;51.986;4.666;2023-12-20T01:04:25;101672.03;;;14.20;53.21
38616;BME280;24370;51.986;4.666;2023-12-20T01:06:52;101671.94;;;14.28;52.43
38616;BME280;24370;51.986;4.666;2023-12-20T01:09:17;101682.16;;;13.73;53.29
38616;BME280;24370;51.986;4.666;2023-12-20T01:11:43;101691.50;;;12.98;55.84
38616;BME280;24370;51.986;4.666;2023-12-20T01:14:09;101691.06;;;13.57;54.27
38616;BME280;24370;51.986;4.666;2023-12-20T01:16:34;101689.34;;;13.53;52.91
38616;BME280;24370;51.986;4.666;2023-12-20T01:19:00;101690.47;;;14.17;52.78
38616;BME280;24370;51.986;4.666;2023-12-20T01:21:25;101681.44;;;13.57;53.52
38616;BME280;24370;51.986;4.666;2023-12-20T01:23:51;101684.63;;;13.87;52.97
38616;BME280;24370;51.986;4.666;2023-12-20T01:26:16;101691.94;;;13.57;53.10
38616;BME280;24370;51.986;4.666;2023-12-20T01:28:42;101690.03;;;13.73;53.81
38616;BME280;24370;51.986;4.666;2023-12-20T01:31:08;101697.81;;;13.86;52.87
38616;BME280;24370;51.986;4.666;2023-12-20T01:33:33;101689.34;;;13.56;54.35
38616;BME280;24370;51.986;4.666;2023-12-20T01:35:59;101694.50;;;13.64;54.30
38616;BME280;24370;51.986;4.666;2023-12-20T01:38:25;101676.50;;;14.11;53.47
38616;BME280;24370;51.986;4.666;2023-12-20T01:40:50;101680.19;;;13.97;53.94
38616;BME280;24370;51.986;4.666;2023-12-20T01:43:16;101666.69;;;14.28;52.99
38616;BME280;24370;51.986;4.666;2023-12-20T01:45:41;101673.44;;;14.48;52.59
38616;BME280;24370;51.986;4.666;2023-12-20T01:48:08;101677.81;;;13.69;54.26
38616;BME280;24370;51.986;4.666;2023-12-20T01:50:35;101665.06;;;14.15;53.20
38616;BME280;24370;51.986;4.666;2023-12-20T01:53:02;101676.66;;;13.97;54.13
38616;BME280;24370;51.986;4.666;2023-12-20T01:55:30;101668.00;;;14.60;51.66
38616;BME280;24370;51.986;4.666;2023-12-20T01:57:57;101664.00;;;14.98;50.70
38616;BME280;24370;51.986;4.666;2023-12-20T02:00:23;101678.75;;;13.64;53.73
38616;BME280;24370;51.986;4.666;2023-12-20T02:02:53;101667.53;;;14.32;51.70
38616;BME280;24370;51.986;4.666;2023-12-20T02:05:18;101661.34;;;14.36;52.39
38616;BME280;24370;51.986;4.666;2023-12-20T02:07:44;101656.09;;;14.34;52.37
38616;BME280;24370;51.986;4.666;2023-12-20T02:10:09;101662.56;;;14.07;52.75
38616;BME280;24370;51.986;4.666;2023-12-20T02:12:34;101657.22;;;14.13;52.64
38616;BME280;24370;51.986;4.666;2023-12-20T02:15:01;101662.75;;;14.60;52.12
38616;BME280;24370;51.986;4.666;2023-12-20T02:17:27;101678.59;;;14.57;51.60
38616;BME280;24370;51.986;4.666;2023-12-20T02:19:52;101688.94;;;13.98;52.81
38616;BME280;24370;51.986;4.666;2023-12-20T02:22:18;101681.06;;;13.96;52.40
38616;BME280;24370;51.986;4.666;2023-12-20T02:24:43;101677.50;;;14.75;51.23
38616;BME280;24370;51.986;4.666;2023-12-20T02:27:09;101680.75;;;14.24;52.40
38616;BME280;24370;51.986;4.666;2023-12-20T02:29:35;101672.59;;;15.09;50.43
38616;BME280;24370;51.986;4.666;2023-12-20T02:32:01;101674.38;;;13.61;53.32
38616;BME280;24370;51.986;4.666;2023-12-20T02:34:26;101665.34;;;13.93;53.58
38616;BME280;24370;51.986;4.666;2023-12-20T02:36:52;101656.47;;;14.02;53.68
38616;BME280;24370;51.986;4.666;2023-12-20T02:39:18;101655.56;;;14.06;53.01
38616;BME280;24370;51.986;4.666;2023-12-20T02:41:43;101659.44;;;13.69;53.77
38616;BME280;24370;51.986;4.666;2023-12-20T02:44:09;101653.41;;;14.37;52.19
38616;BME280;24370;51.986;4.666;2023-12-20T02:46:34;101646.97;;;14.63;50.98
38616;BME280;24370;51.986;4.666;2023-12-20T02:49:00;101655.84;;;14.53;51.93
38616;BME280;24370;51.986;4.666;2023-12-20T02:51:25;101641.19;;;15.00;50.87
38616;BME280;24370;51.986;4.666;2023-12-20T02:53:51;101638.19;;;13.91;53.23
38616;BME280;24370;51.986;4.666;2023-12-20T02:56:16;101634.72;;;13.86;53.09
38616;BME280;24370;51.986;4.666;2023-12-20T02:58:41;101633.03;;;14.55;51.50
38616;BME280;24370;51.986;4.666;2023-12-20T03:01:07;101632.34;;;13.61;53.57
38616;BME280;24370;51.986;4.666;2023-12-20T03:03:32;101626.19;;;14.41;51.62
38616;BME280;24370;51.986;4.666;2023-12-20T03:05:58;101647.88;;;13.86;52.95
38616;BME280;24370;51.986;4.666;2023-12-20T03:08:23;101630.44;;;13.79;53.75
38616;BME280;24370;51.986;4.666;2023-12-20T03:10:48;101637.56;;;13.67;53.79
38616;BME280;24370;51.986;4.666;2023-12-20T03:13:14;101630.59;;;14.38;52.27
38616;BME280;24370;51.986;4.666;2023-12-20T03:15:40;101635.06;;;14.31;51.47
38616;BME280;24370;51.986;4.666;2023-12-20T03:18:05;101629.63;;;14.47;52.38
38616;BME280;24370;51.986;4.666;2023-12-20T03:20:30;101625.81;;;14.01;52.67
38616;BME280;24370;51.986;4.666;2023-12-20T03:23:01;101626.41;;;14.26;52.23
38616;BME280;24370;51.986;4.666;2023-12-20T03:25:27;101621.31;;;14.78;51.43
38616;BME280;24370;51.986;4.666;2023-12-20T03:27:53;101636.81;;;14.34;52.09
38616;BME280;24370;51.986;4.666;2023-12-20T03:30:18;101648.06;;;13.67;53.50
38616;BME280;24370;51.986;4.666;2023-12-20T03:32:44;101635.22;;;14.19;52.15
38616;BME280;24370;51.986;4.666;2023-12-20T03:35:10;101644.50;;;13.74;52.97
38616;BME280;24370;51.986;4.666;2023-12-20T03:37:35;101650.53;;;13.83;53.31
38616;BME280;24370;51.986;4.666;2023-12-20T03:40:01;101642.44;;;14.04;52.63
38616;BME280;24370;51.986;4.666;2023-12-20T03:42:26;101637.31;;;13.92;52.10
38616;BME280;24370;51.986;4.666;2023-12-20T03:44:52;101639.19;;;13.78;52.05
38616;BME280;24370;51.986;4.666;2023-12-20T03:47:17;101646.16;;;13.85;52.41
38616;BME280;24370;51.986;4.666;2023-12-20T03:49:42;101622.63;;;13.74;52.29
38616;BME280;24370;51.986;4.666;2023-12-20T03:52:08;101636.38;;;12.95;54.81
38616;BME280;24370;51.986;4.666;2023-12-20T03:54:35;101621.47;;;13.98;52.25
38616;BME280;24370;51.986;4.666;2023-12-20T03:57:00;101625.16;;;13.82;52.76
38616;BME280;24370;51.986;4.666;2023-12-20T03:59:25;101623.50;;;13.71;53.10
38616;BME280;24370;51.986;4.666;2023-12-20T04:01:51;101619.09;;;12.69;54.94
38616;BME280;24370;51.986;4.666;2023-12-20T04:04:16;101613.72;;;13.84;52.48
38616;BME280;24370;51.986;4.666;2023-12-20T04:06:41;101624.16;;;12.91;55.77
38616;BME280;24370;51.986;4.666;2023-12-20T04:09:07;101617.63;;;13.46;54.35
38616;BME280;24370;51.986;4.666;2023-12-20T04:11:34;101623.94;;;13.22;54.42
38616;BME280;24370;51.986;4.666;2023-12-20T04:14:00;101625.50;;;13.45;53.93
38616;BME280;24370;51.986;4.666;2023-12-20T04:16:26;101626.56;;;14.14;52.71
38616;BME280;24370;51.986;4.666;2023-12-20T04:18:51;101622.41;;;13.91;53.37
38616;BME280;24370;51.986;4.666;2023-12-20T04:21:17;101621.97;;;13.49;54.25
38616;BME280;24370;51.986;4.666;2023-12-20T04:23:43;101614.72;;;13.76;53.41
38616;BME280;24370;51.986;4.666;2023-12-20T04:26:08;101621.03;;;14.32;52.73
38616;BME280;24370;51.986;4.666;2023-12-20T04:28:34;101625.63;;;13.35;54.34
38616;BME280;24370;51.986;4.666;2023-12-20T04:31:03;101625.50;;;13.48;54.08
38616;BME280;24370;51.986;4.666;2023-12-20T04:33:28;101624.41;;;13.70;54.43
38616;BME280;24370;51.986;4.666;2023-12-20T04:35:53;101627.69;;;12.90;55.59
38616;BME280;24370;51.986;4.666;2023-12-20T04:38:19;101629.84;;;13.53;54.04
38616;BME280;24370;51.986;4.666;2023-12-20T04:40:44;101610.78;;;14.11;52.53
38616;BME280;24370;51.986;4.666;2023-12-20T04:43:09;101619.25;;;13.60;53.96
38616;BME280;24370;51.986;4.666;2023-12-20T04:45:35;101618.59;;;13.34;54.42
38616;BME280;24370;51.986;4.666;2023-12-20T04:48:02;101608.19;;;13.22;55.22
38616;BME280;24370;51.986;4.666;2023-12-20T04:50:27;101602.25;;;13.93;53.52
38616;BME280;24370;51.986;4.666;2023-12-20T04:52:53;101612.56;;;13.21;53.53
38616;BME280;24370;51.986;4.666;2023-12-20T04:55:18;101607.16;;;13.43;54.09
38616;BME280;24370;51.986;4.666;2023-12-20T04:57:43;101598.72;;;13.94;52.45
38616;BME280;24370;51.986;4.666;2023-12-20T05:00:09;101601.66;;;13.68;52.82
38616;BME280;24370;51.986;4.666;2023-12-20T05:02:35;101600.81;;;13.66;52.10
38616;BME280;24370;51.986;4.666;2023-12-20T05:05:01;101614.22;;;13.39;52.84
38616;BME280;24370;51.986;4.666;2023-12-20T05:07:26;101618.53;;;13.42;53.36
38616;BME280;24370;51.986;4.666;2023-12-20T05:09:52;101613.41;;;13.25;53.67
38616;BME280;24370;51.986;4.666;2023-12-20T05:12:17;101613.56;;;13.10;54.14
38616;BME280;24370;51.986;4.666;2023-12-20T05:14:42;101613.13;;;13.59;52.90
38616;BME280;24370;51.986;4.666;2023-12-20T05:17:08;101606.25;;;14.25;51.58
38616;BME280;24370;51.986;4.666;2023-12-20T05:19:33;101609.72;;;13.51;53.31
38616;BME280;24370;51.986;4.666;2023-12-20T05:22:01;101616.66;;;13.56;52.99
38616;BME280;24370;51.986;4.666;2023-12-20T05:24:27;101617.91;;;14.02;52.02
38616;BME280;24370;51.986;4.666;2023-12-20T05:26:52;101622.03;;;13.43;54.01
38616;BME280;24370;51.986;4.666;2023-12-20T05:29:18;101617.91;;;13.12;55.20
38616;BME280;24370;51.986;4.666;2023-12-20T05:31:43;101612.88;;;13.84;53.70
38616;BME280;24370;51.986;4.666;2023-12-20T05:34:08;101621.22;;;13.34;54.93
38616;BME280;24370;51.986;4.666;2023-12-20T05:36:34;101620.22;;;13.51;54.73
38616;BME280;24370;51.986;4.666;2023-12-20T05:39:00;101613.00;;;13.71;54.61
38616;BME280;24370;51.986;4.666;2023-12-20T05:41:25;101609.19;;;14.00;52.81
38616;BME280;24370;51.986;4.666;2023-12-20T05:43:51;101613.00;;;13.71;53.33
38616;BME280;24370;51.986;4.666;2023-12-20T05:46:16;101612.78;;;13.90;54.19
38616;BME280;24370;51.986;4.666;2023-12-20T05:48:41;101611.25;;;13.70;54.16
38616;BME280;24370;51.986;4.666;2023-12-20T05:51:07;101614.22;;;13.39;56.09
38616;BME280;24370;51.986;4.666;2023-12-20T05:53:33;101597.03;;;14.57;52.42
38616;BME280;24370;51.986;4.666;2023-12-20T05:55:58;101594.69;;;14.35;53.05
38616;BME280;24370;51.986;4.666;2023-12-20T05:58:24;101608.41;;;14.59;52.49
38616;BME280;24370;51.986;4.666;2023-12-20T06:00:50;101593.25;;;14.13;53.13
38616;BME280;24370;51.986;4.666;2023-12-20T06:03:15;101595.47;;;14.43;51.56
38616;BME280;24370;51.986;4.666;2023-12-20T06:05:40;101602.06;;;14.08;52.92
38616;BME280;24370;51.986;4.666;2023-12-20T06:08:06;101604.38;;;13.57;54.34
38616;BME280;24370;51.986;4.666;2023-12-20T06:10:31;101615.88;;;13.48;54.87
38616;BME280;24370;51.986;4.666;2023-12-20T06:12:57;101599.97;;;13.62;54.29
38616;BME280;24370;51.986;4.666;2023-12-20T06:15:24;101595.75;;;14.23;53.17
38616;BME280;24370;51.986;4.666;2023-12-20T06:17:49;101613.63;;;14.62;52.66
38616;BME280;24370;51.986;4.666;2023-12-20T06:20:15;101604.44;;;14.27;52.96
38616;BME280;24370;51.986;4.666;2023-12-20T06:22:40;101604.13;;;13.82;54.61
38616;BME280;24370;51.986;4.666;2023-12-20T06:25:06;101613.19;;;13.51;54.82
38616;BME280;24370;51.986;4.666;2023-12-20T06:27:32;101605.91;;;13.80;54.55
38616;BME280;24370;51.986;4.666;2023-12-20T06:29:57;101611.66;;;13.27;54.89
38616;BME280;24370;51.986;4.666;2023-12-20T06:32:23;101602.75;;;13.47;54.67
38616;BME280;24370;51.986;4.666;2023-12-20T06:34:49;101602.19;;;13.99;53.63
38616;BME280;24370;51.986;4.666;2023-12-20T06:37:15;101599.72;;;14.54;52.26
38616;BME280;24370;51.986;4.666;2023-12-20T06:39:40;101600.44;;;13.98;53.53
38616;BME280;24370;51.986;4.666;2023-12-20T06:42:06;101602.38;;;13.84;54.45
38616;BME280;24370;51.986;4.666;2023-12-20T06:44:31;101599.66;;;14.57;52.41
38616;BME280;24370;51.986;4.666;2023-12-20T06:46:57;101596.22;;;13.85;53.42
38616;BME280;24370;51.986;4.666;2023-12-20T06:49:23;101592.53;;;13.98;53.41
38616;BME280;24370;51.986;4.666;2023-12-20T06:51:48;101582.78;;;14.10;53.26
38616;BME280;24370;51.986;4.666;2023-12-20T06:54:13;101593.25;;;14.13;53.15
38616;BME280;24370;51.986;4.666;2023-12-20T06:56:39;101583.22;;;13.72;53.90
38616;BME280;24370;51.986;4.666;2023-12-20T06:59:04;101587.31;;;14.62;52.23
38616;BME280;24370;51.986;4.666;2023-12-20T07:01:30;101580.53;;;14.46;52.40
38616;BME280;24370;51.986;4.666;2023-12-20T07:03:55;101577.69;;;13.94;54.15
38616;BME280;24370;51.986;4.666;2023-12-20T07:06:20;101571.03;;;13.65;54.16
38616;BME280;24370;51.986;4.666;2023-12-20T07:08:46;101575.47;;;13.58;55.13
38616;BME280;24370;51.986;4.666;2023-12-20T07:11:11;101563.53;;;14.70;52.26
38616;BME280;24370;51.986;4.666;2023-12-20T07:13:37;101564.63;;;14.55;53.00
38616;BME280;24370;51.986;4.666;2023-12-20T07:16:02;101562.50;;;14.19;53.09
38616;BME280;24370;51.986;4.666;2023-12-20T07:18:28;101564.84;;;14.39;52.53
38616;BME280;24370;51.986;4.666;2023-12-20T07:20:54;101565.91;;;14.28;52.80
38616;BME280;24370;51.986;4.666;2023-12-20T07:23:20;101547.81;;;14.04;53.87
38616;BME280;24370;51.986;4.666;2023-12-20T07:25:46;101557.75;;;14.45;52.00
38616;BME280;24370;51.986;4.666;2023-12-20T07:28:12;101552.72;;;13.59;54.35
38616;BME280;24370;51.986;4.666;2023-12-20T07:30:37;101558.38;;;13.14;56.56
38616;BME280;24370;51.986;4.666;2023-12-20T07:33:02;101559.69;;;13.63;54.93
38616;BME280;24370;51.986;4.666;2023-12-20T07:35:28;101554.81;;;14.05;53.75
38616;BME280;24370;51.986;4.666;2023-12-20T07:37:53;101574.19;;;13.10;56.19
38616;BME280;24370;51.986;4.666;2023-12-20T07:40:19;101571.59;;;13.94;54.11
38616;BME280;24370;51.986;4.666;2023-12-20T07:42:44;101577.47;;;14.13;53.58
38616;BME280;24370;51.986;4.666;2023-12-20T07:45:10;101588.75;;;13.48;54.56
38616;BME280;24370;51.986;4.666;2023-12-20T07:47:38;101586.09;;;13.46;55.80
38616;BME280;24370;51.986;4.666;2023-12-20T07:50:04;101577.31;;;14.25;53.75
38616;BME280;24370;51.986;4.666;2023-12-20T07:52:30;101583.00;;;13.91;54.67
38616;BME280;24370;51.986;4.666;2023-12-20T07:54:55;101580.59;;;13.72;54.73
38616;BME280;24370;51.986;4.666;2023-12-20T07:57:21;101583.84;;;14.58;52.88
38616;BME280;24370;51.986;4.666;2023-12-20T07:59:47;101579.91;;;14.28;53.23
38616;BME280;24370;51.986;4.666;2023-12-20T08:02:12;101587.56;;;14.43;52.98
38616;BME280;24370;51.986;4.666;2023-12-20T08:04:37;101592.03;;;14.37;53.29
38616;BME280;24370;51.986;4.666;2023-12-20T08:07:03;101601.63;;;14.42;52.69
38616;BME280;24370;51.986;4.666;2023-12-20T08:09:29;101592.84;;;14.42;52.73
38616;BME280;24370;51.986;4.666;2023-12-20T08:11:55;101602.41;;;13.78;54.68
38616;BME280;24370;51.986;4.666;2023-12-20T08:14:21;101608.09;;;14.17;54.03
38616;BME280;24370;51.986;4.666;2023-12-20T08:16:46;101613.50;;;13.13;56.31
38616;BME280;24370;51.986;4.666;2023-12-20T08:19:12;101603.53;;;14.31;53.71
38616;BME280;24370;51.986;4.666;2023-12-20T08:21:37;101609.31;;;13.88;54.38
38616;BME280;24370;51.986;4.666;2023-12-20T08:24:03;101613.97;;;13.64;56.16
38616;BME280;24370;51.986;4.666;2023-12-20T08:26:28;101595.66;;;14.30;54.54
38616;BME280;24370;51.986;4.666;2023-12-20T08:28:54;101595.75;;;14.23;54.25
38616;BME280;24370;51.986;4.666;2023-12-20T08:31:19;101593.97;;;14.24;54.07
38616;BME280;24370;51.986;4.666;2023-12-20T08:33:47;101591.19;;;14.36;54.88
38616;BME280;24370;51.986;4.666;2023-12-20T08:36:13;101587.63;;;14.40;53.50
38616;BME280;24370;51.986;4.666;2023-12-20T08:38:39;101582.66;;;14.83;53.25
38616;BME280;24370;51.986;4.666;2023-12-20T08:41:04;101600.75;;;13.70;54.94
38616;BME280;24370;51.986;4.666;2023-12-20T08:43:31;101594.81;;;14.29;54.89
38616;BME280;24370;51.986;4.666;2023-12-20T08:45:56;101602.34;;;14.54;54.13
38616;BME280;24370;51.986;4.666;2023-12-20T08:48:21;101600.22;;;14.17;54.63
38616;BME280;24370;51.986;4.666;2023-12-20T08:50:47;101606.41;;;14.80;52.79
38616;BME280;24370;51.986;4.666;2023-12-20T08:53:14;101596.09;;;14.61;53.28
38616;BME280;24370;51.986;4.666;2023-12-20T08:55:40;101591.72;;;14.63;54.23
38616;BME280;24370;51.986;4.666;2023-12-20T08:58:06;101596.06;;;14.64;53.82
38616;BME280;24370;51.986;4.666;2023-12-20T09:00:33;101605.53;;;14.14;55.10
38616;BME280;24370;51.986;4.666;2023-12-20T09:03:01;101585.91;;;15.00;53.47
38616;BME280;24370;51.986;4.666;2023-12-20T09:05:27;101593.31;;;14.06;54.90
38616;BME280;24370;51.986;4.666;2023-12-20T09:07:53;101586.50;;;14.57;53.62
38616;BME280;24370;51.986;4.666;2023-12-20T09:10:18;101592.53;;;14.67;53.44
38616;BME280;24370;51.986;4.666;2023-12-20T09:12:50;101588.59;;;14.33;54.57
38616;BME280;24370;51.986;4.666;2023-12-20T09:15:17;101576.25;;;14.99;52.63
38616;BME280;24370;51.986;4.666;2023-12-20T09:17:42;101587.13;;;15.31;52.60
38616;BME280;24370;51.986;4.666;2023-12-20T09:20:09;101582.03;;;14.65;53.37
38616;BME280;24370;51.986;4.666;2023-12-20T09:22:34;101583.25;;;15.00;52.79
38616;BME280;24370;51.986;4.666;2023-12-20T09:25:00;101583.75;;;15.22;52.35
38616;BME280;24370;51.986;4.666;2023-12-20T09:27:27;101570.50;;;14.75;53.27
38616;BME280;24370;51.986;4.666;2023-12-20T09:29:52;101581.44;;;15.02;52.33
38616;BME280;24370;51.986;4.666;2023-12-20T09:32:18;101571.97;;;15.43;52.22
38616;BME280;24370;51.986;4.666;2023-12-20T09:34:45;101579.41;;;15.20;52.77
38616;BME280;24370;51.986;4.666;2023-12-20T09:37:11;101580.09;;;14.80;53.72
38616;BME280;24370;51.986;4.666;2023-12-20T09:39:36;101591.59;;;14.04;55.13
38616;BME280;24370;51.986;4.666;2023-12-20T09:42:04;101587.78;;;14.92;53.29
38616;BME280;24370;51.986;4.666;2023-12-20T09:44:30;101590.25;;;15.01;53.64
38616;BME280;24370;51.986;4.666;2023-12-20T09:46:57;101581.66;;;14.90;54.01
38616;BME280;24370;51.986;4.666;2023-12-20T09:49:22;101587.03;;;14.84;53.75
38616;BME280;24370;51.986;4.666;2023-12-20T09:51:50;101591.03;;;15.06;52.72
38616;BME280;24370;51.986;4.666;2023-12-20T09:54:21;101606.28;;;14.86;54.07
38616;BME280;24370;51.986;4.666;2023-12-20T09:56:47;101611.81;;;15.73;51.06
38616;BME280;24370;51.986;4.666;2023-12-20T09:59:13;101613.16;;;15.48;51.81
38616;BME280;24370;51.986;4.666;2023-12-20T10:01:39;101610.94;;;15.23;52.87
38616;BME280;24370;51.986;4.666;2023-12-20T10:04:06;101608.59;;;15.07;52.71
38616;BME280;24370;51.986;4.666;2023-12-20T10:06:36;101609.59;;;15.00;52.85
38616;BME280;24370;51.986;4.666;2023-12-20T10:09:01;101603.63;;;14.87;53.67
38616;BME280;24370;51.986;4.666;2023-12-20T10:11:27;101605.53;;;15.32;52.30
38616;BME280;24370;51.986;4.666;2023-12-20T10:13:59;101605.66;;;14.71;53.91
38616;BME280;24370;51.986;4.666;2023-12-20T10:16:28;101599.69;;;15.63;51.94
38616;BME280;24370;51.986;4.666;2023-12-20T10:18:54;101592.59;;;16.12;50.96
38616;BME280;24370;51.986;4.666;2023-12-20T10:21:23;101606.59;;;14.64;53.04
38616;BME280;24370;51.986;4.666;2023-12-20T10:23:49;101606.53;;;15.25;52.16
38616;BME280;24370;51.986;4.666;2023-12-20T10:26:25;101597.66;;;16.23;50.46
38616;BME280;24370;51.986;4.666;2023-12-20T10:28:53;101592.75;;;16.04;49.92
38616;BME280;24370;51.986;4.666;2023-12-20T10:31:34;101607.69;;;15.58;51.08
38616;BME280;24370;51.986;4.666;2023-12-20T10:34:02;101582.31;;;15.53;51.50
38616;BME280;24370;51.986;4.666;2023-12-20T10:36:36;101587.03;;;16.26;50.06
38616;BME280;24370;51.986;4.666;2023-12-20T10:39:02;101586.81;;;15.48;51.17
38616;BME280;24370;51.986;4.666;2023-12-20T10:41:29;101592.00;;;15.51;51.34
38616;BME280;24370;51.986;4.666;2023-12-20T10:44:02;101587.50;;;15.09;52.50
38616;BME280;24370;51.986;4.666;2023-12-20T10:46:28;101576.81;;;15.18;52.43
38616;BME280;24370;51.986;4.666;2023-12-20T10:48:55;101578.34;;;15.30;52.90
38616;BME280;24370;51.986;4.666;2023-12-20T10:51:21;101568.97;;;16.07;50.63
38616;BME280;24370;51.986;4.666;2023-12-20T10:53:48;101578.66;;;15.12;52.43
38616;BME280;24370;51.986;4.666;2023-12-20T10:56:17;101570.94;;;15.51;53.09
38616;BME280;24370;51.986;4.666;2023-12-20T10:58:43;101561.72;;;15.28;52.16
38616;BME280;24370;51.986;4.666;2023-12-20T11:01:12;101565.28;;;15.24;52.98
38616;BME280;24370;51.986;4.666;2023-12-20T11:03:43;101557.66;;;16.02;51.51
38616;BME280;24370;51.986;4.666;2023-12-20T11:06:36;101559.00;;;15.80;51.34
38616;BME280;24370;51.986;4.666;2023-12-20T11:09:26;101556.53;;;15.22;52.59
38616;BME280;24370;51.986;4.666;2023-12-20T11:14:27;101547.22;;;15.51;52.33
38616;BME280;24370;51.986;4.666;2023-12-20T11:17:12;101547.63;;;16.20;50.83
38616;BME280;24370;51.986;4.666;2023-12-20T11:20:05;101546.06;;;16.09;50.92
38616;BME280;24370;51.986;4.666;2023-12-20T11:22:32;101536.41;;;15.66;52.11
38616;BME280;24370;51.986;4.666;2023-12-20T11:25:06;101542.53;;;15.20;53.19
38616;BME280;24370;51.986;4.666;2023-12-20T11:27:33;101548.03;;;15.07;53.36
38616;BME280;24370;51.986;4.666;2023-12-20T11:30:03;101541.72;;;16.48;50.05
38616;BME280;24370;51.986;4.666;2023-12-20T11:32:35;101544.22;;;15.71;52.20
38616;BME280;24370;51.986;4.666;2023-12-20T11:35:18;101528.66;;;16.02;51.89
38616;BME280;24370;51.986;4.666;2023-12-20T11:37:45;101537.97;;;15.30;52.35
38616;BME280;24370;51.986;4.666;2023-12-20T11:40:16;101528.19;;;16.24;51.17
38616;BME280;24370;51.986;4.666;2023-12-20T11:42:48;101515.22;;;17.23;48.32
38616;BME280;24370;51.986;4.666;2023-12-20T11:45:15;101530.31;;;16.06;50.36
38616;BME280;24370;51.986;4.666;2023-12-20T11:47:46;101515.91;;;15.35;51.67
38616;BME280;24370;51.986;4.666;2023-12-20T11:50:12;101517.00;;;15.70;51.62
38616;BME280;24370;51.986;4.666;2023-12-20T11:52:38;101515.44;;;16.41;49.87
38616;BME280;24370;51.986;4.666;2023-12-20T11:55:03;101512.72;;;16.07;50.06
38616;BME280;24370;51.986;4.666;2023-12-20T11:57:30;101514.09;;;15.39;52.07
38616;BME280;24370;51.986;4.666;2023-12-20T11:59:55;101515.50;;;15.57;51.72
38616;BME280;24370;51.986;4.666;2023-12-20T12:02:21;101508.53;;;15.98;51.19
38616;BME280;24370;51.986;4.666;2023-12-20T12:04:48;101505.97;;;15.04;53.60
38616;BME280;24370;51.986;4.666;2023-12-20T12:07:13;101506.59;;;15.63;52.51
38616;BME280;24370;51.986;4.666;2023-12-20T12:09:39;101510.47;;;15.44;52.28
38616;BME280;24370;51.986;4.666;2023-12-20T12:12:05;101513.22;;;15.84;51.80
38616;BME280;24370;51.986;4.666;2023-12-20T12:14:30;101510.75;;;16.17;50.59
38616;BME280;24370;51.986;4.666;2023-12-20T12:16:56;101509.31;;;16.03;50.92
38616;BME280;24370;51.986;4.666;2023-12-20T12:19:27;101503.34;;;15.50;51.86
38616;BME280;24370;51.986;4.666;2023-12-20T12:22:09;101495.16;;;16.07;51.01
38616;BME280;24370;51.986;4.666;2023-12-20T12:24:45;101502.66;;;15.84;51.12
38616;BME280;24370;51.986;4.666;2023-12-20T12:27:11;101493.38;;;15.64;51.97
38616;BME280;24370;51.986;4.666;2023-12-20T12:29:37;101490.97;;;15.97;50.52
38616;BME280;24370;51.986;4.666;2023-12-20T12:32:07;101496.00;;;16.08;50.43
38616;BME280;24370;51.986;4.666;2023-12-20T12:34:33;101491.00;;;15.52;52.13
38616;BME280;24370;51.986;4.666;2023-12-20T12:37:04;101486.88;;;15.38;51.74
38616;BME280;24370;51.986;4.666;2023-12-20T12:39:30;101494.69;;;15.88;50.12
38616;BME280;24370;51.986;4.666;2023-12-20T12:41:56;101485.50;;;15.64;51.40
38616;BME280;24370;51.986;4.666;2023-12-20T12:44:22;101479.59;;;15.95;50.13
38616;BME280;24370;51.986;4.666;2023-12-20T12:46:50;101473.13;;;16.08;49.69
38616;BME280;24370;51.986;4.666;2023-12-20T12:49:16;101462.78;;;16.38;49.61